sensor_id;sensor_type;location;lat;lon;timestamp;pressure;altitude;pressure_sealevel;temperature;humidity
53246;BME280;39569;51.090;-1.786;2023-02-28T00:00:39;102640.28;;;7.91;54.96
53246;BME280;39569;51.090;-1.786;2023-02-28T00:03:06;102645.38;;;8.07;55.31
53246;BME280;39569;51.090;-1.786;2023-02-28T00:05:33;102644.06;;;8.12;55.25
53246;BME280;39569;51.090;-1.786;2023-02-28T00:08:00;102636.75;;;8.03;55.58
53246;BME280;39569;51.090;-1.786;2023-02-28T00:10:28;102639.19;;;8.06;55.31
53246;BME280;39569;51.090;-1.786;2023-02-28T00:13:03;102643.94;;;8.14;54.94
53246;BME280;39569;51.090;-1.786;2023-02-28T00:15:30;102640.47;;;8.01;55.27
53246;BME280;39569;51.090;-1.786;2023-02-28T00:17:57;102645.84;;;7.88;55.69
53246;BME280;39569;51.090;-1.786;2023-02-28T00:20:24;102648.69;;;7.85;55.88
53246;BME280;39569;51.090;-1.786;2023-02-28T00:22:52;102644.66;;;7.92;55.82
53246;BME280;39569;51.090;-1.786;2023-02-28T00:25:21;102645.47;;;8.05;54.97
53246;BME280;39569;51.090;-1.786;2023-02-28T00:27:49;102634.41;;;7.98;55.22
53246;BME280;39569;51.090;-1.786;2023-02-28T00:30:19;102644.31;;;7.96;55.27
53246;BME280;39569;51.090;-1.786;2023-02-28T00:32:46;102644.03;;;7.88;55.27
53246;BME280;39569;51.090;-1.786;2023-02-28T00:35:13;102644.25;;;7.85;54.79
53246;BME280;39569;51.090;-1.786;2023-02-28T00:37:40;102645.13;;;7.73;55.03
53246;BME280;39569;51.090;-1.786;2023-02-28T00:40:08;102653.78;;;8.01;54.76
53246;BME280;39569;51.090;-1.786;2023-02-28T00:42:36;102641.50;;;7.74;54.68
53246;BME280;39569;51.090;-1.786;2023-02-28T00:45:04;102651.03;;;7.89;54.60
53246;BME280;39569;51.090;-1.786;2023-02-28T00:47:32;102650.66;;;7.70;55.41
53246;BME280;39569;51.090;-1.786;2023-02-28T00:50:00;102654.38;;;7.80;54.89
53246;BME280;39569;51.090;-1.786;2023-02-28T00:52:27;102655.78;;;7.73;54.90
53246;BME280;39569;51.090;-1.786;2023-02-28T00:54:53;102638.72;;;7.76;55.05
53246;BME280;39569;51.090;-1.786;2023-02-28T00:57:20;102645.78;;;7.64;54.86
53246;BME280;39569;51.090;-1.786;2023-02-28T00:59:47;102652.38;;;7.71;54.51
53246;BME280;39569;51.090;-1.786;2023-02-28T01:02:14;102649.94;;;7.43;55.17
53246;BME280;39569;51.090;-1.786;2023-02-28T01:04:42;102647.25;;;7.56;55.35
53246;BME280;39569;51.090;-1.786;2023-02-28T01:07:09;102650.69;;;7.45;55.02
53246;BME280;39569;51.090;-1.786;2023-02-28T01:09:36;102649.53;;;7.37;55.85
53246;BME280;39569;51.090;-1.786;2023-02-28T01:12:03;102657.81;;;7.45;54.97
53246;BME280;39569;51.090;-1.786;2023-02-28T01:14:30;102659.50;;;7.33;55.45
53246;BME280;39569;51.090;-1.786;2023-02-28T01:16:57;102661.84;;;7.38;55.71
53246;BME280;39569;51.090;-1.786;2023-02-28T01:19:23;102661.22;;;7.47;55.77
53246;BME280;39569;51.090;-1.786;2023-02-28T01:21:52;102661.41;;;7.69;55.03
53246;BME280;39569;51.090;-1.786;2023-02-28T01:24:19;102662.78;;;7.74;54.96
53246;BME280;39569;51.090;-1.786;2023-02-28T01:26:46;102656.00;;;7.45;55.79
53246;BME280;39569;51.090;-1.786;2023-02-28T01:29:12;102656.06;;;7.69;55.11
53246;BME280;39569;51.090;-1.786;2023-02-28T01:31:39;102660.47;;;7.70;56.04
53246;BME280;39569;51.090;-1.786;2023-02-28T01:34:06;102671.28;;;7.67;54.93
53246;BME280;39569;51.090;-1.786;2023-02-28T01:36:33;102666.31;;;7.62;54.78
53246;BME280;39569;51.090;-1.786;2023-02-28T01:39:01;102664.81;;;7.58;54.64
53246;BME280;39569;51.090;-1.786;2023-02-28T01:41:29;102661.84;;;7.50;55.02
53246;BME280;39569;51.090;-1.786;2023-02-28T01:44:00;102668.34;;;7.59;55.51
53246;BME280;39569;51.090;-1.786;2023-02-28T01:46:30;102663.75;;;7.48;54.68
53246;BME280;39569;51.090;-1.786;2023-02-28T01:49:01;102663.97;;;7.45;54.53
53246;BME280;39569;51.090;-1.786;2023-02-28T01:51:34;102664.50;;;7.38;54.99
53246;BME280;39569;51.090;-1.786;2023-02-28T01:54:07;102658.97;;;7.16;55.24
53246;BME280;39569;51.090;-1.786;2023-02-28T01:56:42;102662.69;;;7.26;54.60
53246;BME280;39569;51.090;-1.786;2023-02-28T01:59:12;102662.03;;;7.22;54.67
53246;BME280;39569;51.090;-1.786;2023-02-28T02:01:40;102655.03;;;7.09;54.75
53246;BME280;39569;51.090;-1.786;2023-02-28T02:04:07;102659.16;;;7.00;55.39
53246;BME280;39569;51.090;-1.786;2023-02-28T02:06:38;102661.94;;;7.11;55.41
53246;BME280;39569;51.090;-1.786;2023-02-28T02:09:07;102653.31;;;7.08;55.55
53246;BME280;39569;51.090;-1.786;2023-02-28T02:11:34;102654.34;;;6.92;55.94
53246;BME280;39569;51.090;-1.786;2023-02-28T02:14:24;102654.91;;;6.97;55.53
53246;BME280;39569;51.090;-1.786;2023-02-28T02:17:04;102652.03;;;6.88;55.92
53246;BME280;39569;51.090;-1.786;2023-02-28T02:19:52;102649.69;;;6.96;55.93
53246;BME280;39569;51.090;-1.786;2023-02-28T02:22:43;102647.59;;;7.01;55.64
53246;BME280;39569;51.090;-1.786;2023-02-28T02:25:25;102654.69;;;6.88;56.56
53246;BME280;39569;51.090;-1.786;2023-02-28T02:28:19;102644.28;;;6.97;55.91
53246;BME280;39569;51.090;-1.786;2023-02-28T02:31:06;102641.41;;;7.01;55.48
53246;BME280;39569;51.090;-1.786;2023-02-28T02:34:14;102645.44;;;6.93;56.27
53246;BME280;39569;51.090;-1.786;2023-02-28T02:36:53;102640.31;;;6.90;55.76
53246;BME280;39569;51.090;-1.786;2023-02-28T02:39:31;102639.59;;;6.88;56.23
53246;BME280;39569;51.090;-1.786;2023-02-28T02:42:05;102639.69;;;6.87;56.77
53246;BME280;39569;51.090;-1.786;2023-02-28T02:44:39;102638.53;;;6.91;56.54
53246;BME280;39569;51.090;-1.786;2023-02-28T02:47:11;102632.81;;;6.97;56.73
53246;BME280;39569;51.090;-1.786;2023-02-28T02:49:44;102636.00;;;7.02;56.00
53246;BME280;39569;51.090;-1.786;2023-02-28T02:52:14;102646.09;;;7.10;56.47
53246;BME280;39569;51.090;-1.786;2023-02-28T02:54:45;102646.72;;;7.01;56.50
53246;BME280;39569;51.090;-1.786;2023-02-28T02:57:20;102647.06;;;7.09;56.32
53246;BME280;39569;51.090;-1.786;2023-02-28T02:59:50;102652.69;;;7.04;56.61
53246;BME280;39569;51.090;-1.786;2023-02-28T03:02:19;102642.16;;;7.03;56.66
53246;BME280;39569;51.090;-1.786;2023-02-28T03:04:52;102645.25;;;7.09;55.75
53246;BME280;39569;51.090;-1.786;2023-02-28T03:07:19;102647.59;;;7.01;56.11
53246;BME280;39569;51.090;-1.786;2023-02-28T03:09:51;102640.56;;;7.00;56.78
53246;BME280;39569;51.090;-1.786;2023-02-28T03:12:19;102642.56;;;6.96;56.69
53246;BME280;39569;51.090;-1.786;2023-02-28T03:14:56;102639.63;;;7.01;56.36
53246;BME280;39569;51.090;-1.786;2023-02-28T03:17:40;102646.44;;;7.05;56.68
53246;BME280;39569;51.090;-1.786;2023-02-28T03:20:19;102645.78;;;7.14;56.71
53246;BME280;39569;51.090;-1.786;2023-02-28T03:23:03;102647.91;;;7.09;57.00
53246;BME280;39569;51.090;-1.786;2023-02-28T03:25:39;102652.91;;;7.14;56.41
53246;BME280;39569;51.090;-1.786;2023-02-28T03:28:11;102645.78;;;7.14;56.59
53246;BME280;39569;51.090;-1.786;2023-02-28T03:30:47;102652.50;;;7.20;56.43
53246;BME280;39569;51.090;-1.786;2023-02-28T03:33:19;102653.66;;;7.03;56.88
53246;BME280;39569;51.090;-1.786;2023-02-28T03:35:53;102656.19;;;7.17;56.96
53246;BME280;39569;51.090;-1.786;2023-02-28T03:38:24;102649.91;;;7.06;57.04
53246;BME280;39569;51.090;-1.786;2023-02-28T03:40:58;102651.00;;;7.03;57.46
53246;BME280;39569;51.090;-1.786;2023-02-28T03:43:31;102648.97;;;7.07;57.22
53246;BME280;39569;51.090;-1.786;2023-02-28T03:46:02;102654.94;;;7.23;57.04
53246;BME280;39569;51.090;-1.786;2023-02-28T03:48:35;102647.47;;;7.15;57.16
53246;BME280;39569;51.090;-1.786;2023-02-28T03:51:08;102658.56;;;7.22;57.05
53246;BME280;39569;51.090;-1.786;2023-02-28T03:53:39;102651.63;;;7.19;56.99
53246;BME280;39569;51.090;-1.786;2023-02-28T03:56:12;102653.97;;;7.11;57.02
53246;BME280;39569;51.090;-1.786;2023-02-28T03:58:44;102651.00;;;7.03;56.87
53246;BME280;39569;51.090;-1.786;2023-02-28T04:01:18;102652.50;;;7.07;57.30
53246;BME280;39569;51.090;-1.786;2023-02-28T04:03:46;102643.22;;;7.00;57.08
53246;BME280;39569;51.090;-1.786;2023-02-28T04:06:18;102644.81;;;6.90;56.86
53246;BME280;39569;51.090;-1.786;2023-02-28T04:08:45;102630.66;;;6.77;58.05
53246;BME280;39569;51.090;-1.786;2023-02-28T04:11:20;102627.19;;;7.02;57.66
53246;BME280;39569;51.090;-1.786;2023-02-28T04:13:48;102635.16;;;7.02;57.97
53246;BME280;39569;51.090;-1.786;2023-02-28T04:16:15;102637.31;;;7.22;57.20
53246;BME280;39569;51.090;-1.786;2023-02-28T04:18:42;102638.34;;;7.19;57.23
53246;BME280;39569;51.090;-1.786;2023-02-28T04:21:10;102639.50;;;7.15;56.85
53246;BME280;39569;51.090;-1.786;2023-02-28T04:23:39;102638.88;;;7.24;56.80
53246;BME280;39569;51.090;-1.786;2023-02-28T04:26:06;102641.53;;;7.24;57.11
53246;BME280;39569;51.090;-1.786;2023-02-28T04:28:33;102633.44;;;7.01;57.95
53246;BME280;39569;51.090;-1.786;2023-02-28T04:31:02;102637.94;;;7.25;57.13
53246;BME280;39569;51.090;-1.786;2023-02-28T04:33:31;102650.13;;;7.15;57.39
53246;BME280;39569;51.090;-1.786;2023-02-28T04:35:59;102648.44;;;7.27;57.00
53246;BME280;39569;51.090;-1.786;2023-02-28T04:38:26;102650.78;;;7.31;57.36
53246;BME280;39569;51.090;-1.786;2023-02-28T04:40:57;102645.69;;;7.28;56.75
53246;BME280;39569;51.090;-1.786;2023-02-28T04:43:23;102652.59;;;7.31;57.06
53246;BME280;39569;51.090;-1.786;2023-02-28T04:45:50;102654.94;;;7.23;57.38
53246;BME280;39569;51.090;-1.786;2023-02-28T04:48:17;102657.34;;;7.01;57.72
53246;BME280;39569;51.090;-1.786;2023-02-28T04:50:43;102655.78;;;7.11;58.26
53246;BME280;39569;51.090;-1.786;2023-02-28T04:53:10;102651.84;;;7.29;58.44
53246;BME280;39569;51.090;-1.786;2023-02-28T04:55:37;102655.03;;;7.21;58.71
53246;BME280;39569;51.090;-1.786;2023-02-28T04:58:07;102661.63;;;7.28;58.55
53246;BME280;39569;51.090;-1.786;2023-02-28T05:00:34;102661.97;;;7.36;58.29
53246;BME280;39569;51.090;-1.786;2023-02-28T05:03:01;102663.00;;;7.46;57.37
53246;BME280;39569;51.090;-1.786;2023-02-28T05:05:27;102660.47;;;7.45;56.80
53246;BME280;39569;51.090;-1.786;2023-02-28T05:07:54;102657.91;;;7.31;57.55
53246;BME280;39569;51.090;-1.786;2023-02-28T05:10:21;102666.59;;;7.20;58.15
53246;BME280;39569;51.090;-1.786;2023-02-28T05:12:48;102671.53;;;7.51;57.38
53246;BME280;39569;51.090;-1.786;2023-02-28T05:15:17;102677.47;;;7.55;56.91
53246;BME280;39569;51.090;-1.786;2023-02-28T05:17:44;102679.16;;;7.56;57.14
53246;BME280;39569;51.090;-1.786;2023-02-28T05:20:11;102675.97;;;7.63;56.65
53246;BME280;39569;51.090;-1.786;2023-02-28T05:22:38;102679.59;;;7.37;57.07
53246;BME280;39569;51.090;-1.786;2023-02-28T05:25:06;102677.03;;;7.36;56.91
53246;BME280;39569;51.090;-1.786;2023-02-28T05:27:33;102689.47;;;7.35;57.26
53246;BME280;39569;51.090;-1.786;2023-02-28T05:30:00;102692.88;;;7.37;56.98
53246;BME280;39569;51.090;-1.786;2023-02-28T05:32:30;102690.22;;;7.12;57.85
53246;BME280;39569;51.090;-1.786;2023-02-28T05:34:56;102683.81;;;7.02;57.62
53246;BME280;39569;51.090;-1.786;2023-02-28T05:37:25;102691.16;;;7.11;57.44
53246;BME280;39569;51.090;-1.786;2023-02-28T05:39:51;102698.81;;;7.03;57.80
53246;BME280;39569;51.090;-1.786;2023-02-28T05:42:18;102701.13;;;7.08;57.77
53246;BME280;39569;51.090;-1.786;2023-02-28T05:44:45;102696.66;;;6.95;57.88
53246;BME280;39569;51.090;-1.786;2023-02-28T05:47:12;102703.09;;;7.18;56.99
53246;BME280;39569;51.090;-1.786;2023-02-28T05:49:42;102691.28;;;7.22;57.30
53246;BME280;39569;51.090;-1.786;2023-02-28T05:52:09;102688.06;;;7.05;57.65
53246;BME280;39569;51.090;-1.786;2023-02-28T05:54:35;102685.84;;;7.11;57.56
53246;BME280;39569;51.090;-1.786;2023-02-28T05:57:02;102692.34;;;7.20;57.39
53246;BME280;39569;51.090;-1.786;2023-02-28T05:59:29;102692.13;;;7.10;57.63
53246;BME280;39569;51.090;-1.786;2023-02-28T06:01:56;102695.94;;;7.19;57.59
53246;BME280;39569;51.090;-1.786;2023-02-28T06:04:23;102677.22;;;7.08;58.12
53246;BME280;39569;51.090;-1.786;2023-02-28T06:06:51;102679.59;;;7.25;56.90
53246;BME280;39569;51.090;-1.786;2023-02-28T06:09:18;102675.13;;;7.25;57.39
53246;BME280;39569;51.090;-1.786;2023-02-28T06:11:45;102685.22;;;7.20;57.79
53246;BME280;39569;51.090;-1.786;2023-02-28T06:14:14;102679.69;;;7.48;56.82
53246;BME280;39569;51.090;-1.786;2023-02-28T06:16:41;102685.13;;;7.34;57.02
53246;BME280;39569;51.090;-1.786;2023-02-28T06:19:09;102683.63;;;7.55;56.60
53246;BME280;39569;51.090;-1.786;2023-02-28T06:21:36;102687.47;;;7.51;56.63
53246;BME280;39569;51.090;-1.786;2023-02-28T06:24:05;102694.81;;;7.73;56.28
53246;BME280;39569;51.090;-1.786;2023-02-28T06:26:32;102690.56;;;7.58;56.86
53246;BME280;39569;51.090;-1.786;2023-02-28T06:28:59;102688.44;;;7.50;56.86
53246;BME280;39569;51.090;-1.786;2023-02-28T06:31:27;102688.22;;;7.41;56.71
53246;BME280;39569;51.090;-1.786;2023-02-28T06:33:54;102683.84;;;7.40;57.02
53246;BME280;39569;51.090;-1.786;2023-02-28T06:36:22;102689.50;;;7.48;57.02
53246;BME280;39569;51.090;-1.786;2023-02-28T06:38:48;102688.09;;;7.30;57.21
53246;BME280;39569;51.090;-1.786;2023-02-28T06:41:22;102699.69;;;7.54;57.39
53246;BME280;39569;51.090;-1.786;2023-02-28T06:43:49;102698.88;;;7.53;56.46
53246;BME280;39569;51.090;-1.786;2023-02-28T06:46:15;102704.50;;;7.36;56.61
53246;BME280;39569;51.090;-1.786;2023-02-28T06:48:43;102701.28;;;7.31;57.58
53246;BME280;39569;51.090;-1.786;2023-02-28T06:51:12;102703.44;;;7.51;56.48
53246;BME280;39569;51.090;-1.786;2023-02-28T06:53:40;102712.03;;;7.42;57.60
53246;BME280;39569;51.090;-1.786;2023-02-28T06:56:08;102704.50;;;7.36;57.32
53246;BME280;39569;51.090;-1.786;2023-02-28T06:58:37;102703.22;;;7.54;56.88
53246;BME280;39569;51.090;-1.786;2023-02-28T07:01:05;102708.53;;;7.54;56.71
53246;BME280;39569;51.090;-1.786;2023-02-28T07:03:32;102713.00;;;7.54;57.35
53246;BME280;39569;51.090;-1.786;2023-02-28T07:05:59;102708.22;;;7.59;56.51
53246;BME280;39569;51.090;-1.786;2023-02-28T07:08:26;102708.84;;;7.37;57.38
53246;BME280;39569;51.090;-1.786;2023-02-28T07:10:54;102716.63;;;7.53;57.21
53246;BME280;39569;51.090;-1.786;2023-02-28T07:13:21;102716.09;;;7.60;57.47
53246;BME280;39569;51.090;-1.786;2023-02-28T07:16:01;102719.03;;;7.68;57.58
53246;BME280;39569;51.090;-1.786;2023-02-28T07:18:29;102719.06;;;7.56;57.46
53246;BME280;39569;51.090;-1.786;2023-02-28T07:20:56;102729.81;;;7.54;58.15
53246;BME280;39569;51.090;-1.786;2023-02-28T07:23:22;102722.56;;;7.56;57.88
53246;BME280;39569;51.090;-1.786;2023-02-28T07:25:50;102736.59;;;7.83;57.47
53246;BME280;39569;51.090;-1.786;2023-02-28T07:28:17;102731.19;;;7.72;57.32
53246;BME280;39569;51.090;-1.786;2023-02-28T07:30:44;102726.59;;;7.87;57.47
53246;BME280;39569;51.090;-1.786;2023-02-28T07:33:12;102729.06;;;7.90;56.93
53246;BME280;39569;51.090;-1.786;2023-02-28T07:35:38;102731.09;;;7.86;56.72
53246;BME280;39569;51.090;-1.786;2023-02-28T07:38:06;102727.13;;;8.05;56.78
53246;BME280;39569;51.090;-1.786;2023-02-28T07:40:34;102727.97;;;7.80;57.52
53246;BME280;39569;51.090;-1.786;2023-02-28T07:43:01;102727.31;;;8.02;57.59
53246;BME280;39569;51.090;-1.786;2023-02-28T07:45:29;102724.56;;;7.90;57.76
53246;BME280;39569;51.090;-1.786;2023-02-28T07:48:00;102729.34;;;8.11;58.24
53246;BME280;39569;51.090;-1.786;2023-02-28T07:50:28;102735.94;;;8.18;57.33
53246;BME280;39569;51.090;-1.786;2023-02-28T07:52:56;102732.28;;;8.19;57.73
53246;BME280;39569;51.090;-1.786;2023-02-28T07:55:23;102731.78;;;8.14;57.52
53246;BME280;39569;51.090;-1.786;2023-02-28T07:57:50;102735.28;;;8.27;57.22
53246;BME280;39569;51.090;-1.786;2023-02-28T08:00:17;102738.34;;;8.46;57.05
53246;BME280;39569;51.090;-1.786;2023-02-28T08:02:44;102739.31;;;8.32;57.15
53246;BME280;39569;51.090;-1.786;2023-02-28T08:05:10;102739.97;;;8.59;56.65
53246;BME280;39569;51.090;-1.786;2023-02-28T08:07:39;102745.53;;;8.56;56.65
53246;BME280;39569;51.090;-1.786;2023-02-28T08:10:06;102741.94;;;8.81;56.91
53246;BME280;39569;51.090;-1.786;2023-02-28T08:12:35;102731.47;;;8.78;56.09
53246;BME280;39569;51.090;-1.786;2023-02-28T08:15:02;102742.66;;;8.83;56.59
53246;BME280;39569;51.090;-1.786;2023-02-28T08:17:29;102739.53;;;8.89;56.33
53246;BME280;39569;51.090;-1.786;2023-02-28T08:19:56;102737.72;;;8.89;56.54
53246;BME280;39569;51.090;-1.786;2023-02-28T08:22:23;102740.56;;;8.99;55.91
53246;BME280;39569;51.090;-1.786;2023-02-28T08:24:51;102748.13;;;9.16;56.60
53246;BME280;39569;51.090;-1.786;2023-02-28T08:27:18;102744.28;;;8.97;57.20
53246;BME280;39569;51.090;-1.786;2023-02-28T08:29:44;102742.59;;;9.30;56.99
53246;BME280;39569;51.090;-1.786;2023-02-28T08:32:11;102743.59;;;9.29;56.27
53246;BME280;39569;51.090;-1.786;2023-02-28T08:34:39;102739.63;;;9.46;56.39
53246;BME280;39569;51.090;-1.786;2023-02-28T08:37:05;102740.13;;;9.51;56.27
53246;BME280;39569;51.090;-1.786;2023-02-28T08:39:34;102746.34;;;9.73;56.43
53246;BME280;39569;51.090;-1.786;2023-02-28T08:42:03;102734.56;;;9.87;56.16
53246;BME280;39569;51.090;-1.786;2023-02-28T08:44:30;102736.75;;;9.71;55.96
53246;BME280;39569;51.090;-1.786;2023-02-28T08:46:57;102739.31;;;9.94;55.71
53246;BME280;39569;51.090;-1.786;2023-02-28T08:49:23;102741.41;;;10.13;55.65
53246;BME280;39569;51.090;-1.786;2023-02-28T08:51:50;102733.75;;;10.09;55.91
53246;BME280;39569;51.090;-1.786;2023-02-28T08:54:17;102735.22;;;10.35;55.48
53246;BME280;39569;51.090;-1.786;2023-02-28T08:56:45;102738.34;;;10.40;55.32
53246;BME280;39569;51.090;-1.786;2023-02-28T08:59:13;102741.56;;;10.65;55.06
53246;BME280;39569;51.090;-1.786;2023-02-28T09:01:40;102741.31;;;11.00;54.00
53246;BME280;39569;51.090;-1.786;2023-02-28T09:04:09;102741.63;;;11.18;54.15
53246;BME280;39569;51.090;-1.786;2023-02-28T09:06:37;102734.00;;;11.54;52.87
53246;BME280;39569;51.090;-1.786;2023-02-28T09:09:04;102730.09;;;11.58;53.60
53246;BME280;39569;51.090;-1.786;2023-02-28T09:11:33;102735.75;;;12.16;52.52
53246;BME280;39569;51.090;-1.786;2023-02-28T09:14:00;102731.25;;;12.75;51.83
53246;BME280;39569;51.090;-1.786;2023-02-28T09:16:33;102728.50;;;12.56;52.20
53246;BME280;39569;51.090;-1.786;2023-02-28T09:19:00;102726.16;;;13.95;48.71
53246;BME280;39569;51.090;-1.786;2023-02-28T09:21:27;102721.25;;;15.67;46.18
53246;BME280;39569;51.090;-1.786;2023-02-28T09:23:54;102718.56;;;17.01;42.54
53246;BME280;39569;51.090;-1.786;2023-02-28T09:26:22;102714.28;;;17.79;39.83
53246;BME280;39569;51.090;-1.786;2023-02-28T09:28:50;102703.72;;;18.38;39.50
53246;BME280;39569;51.090;-1.786;2023-02-28T09:31:18;102692.06;;;19.36;35.99
53246;BME280;39569;51.090;-1.786;2023-02-28T09:33:49;102700.66;;;19.03;35.63
53246;BME280;39569;51.090;-1.786;2023-02-28T09:36:15;102697.03;;;20.49;34.28
53246;BME280;39569;51.090;-1.786;2023-02-28T09:38:42;102700.72;;;19.98;34.27
53246;BME280;39569;51.090;-1.786;2023-02-28T09:41:13;102705.34;;;18.86;36.38
53246;BME280;39569;51.090;-1.786;2023-02-28T09:43:44;102711.72;;;18.32;37.39
53246;BME280;39569;51.090;-1.786;2023-02-28T09:46:22;102719.59;;;15.74;41.25
53246;BME280;39569;51.090;-1.786;2023-02-28T09:48:54;102712.34;;;14.71;43.07
53246;BME280;39569;51.090;-1.786;2023-02-28T09:51:35;102720.94;;;14.30;44.35
53246;BME280;39569;51.090;-1.786;2023-02-28T09:54:04;102723.22;;;13.88;44.84
53246;BME280;39569;51.090;-1.786;2023-02-28T09:56:36;102733.00;;;13.70;45.62
53246;BME280;39569;51.090;-1.786;2023-02-28T09:59:10;102717.63;;;14.09;45.23
53246;BME280;39569;51.090;-1.786;2023-02-28T10:01:45;102728.00;;;13.94;45.53
53246;BME280;39569;51.090;-1.786;2023-02-28T10:04:32;102731.41;;;13.87;46.19
53246;BME280;39569;51.090;-1.786;2023-02-28T10:07:05;102729.50;;;14.06;45.83
53246;BME280;39569;51.090;-1.786;2023-02-28T10:09:43;102738.19;;;13.91;45.27
53246;BME280;39569;51.090;-1.786;2023-02-28T10:12:12;102730.84;;;13.83;45.54
53246;BME280;39569;51.090;-1.786;2023-02-28T10:14:45;102732.16;;;13.79;46.67
53246;BME280;39569;51.090;-1.786;2023-02-28T10:17:16;102738.38;;;13.79;46.61
53246;BME280;39569;51.090;-1.786;2023-02-28T10:19:56;102727.91;;;14.13;46.58
53246;BME280;39569;51.090;-1.786;2023-02-28T10:22:29;102727.22;;;14.11;46.27
53246;BME280;39569;51.090;-1.786;2023-02-28T10:24:59;102721.09;;;13.92;46.92
53246;BME280;39569;51.090;-1.786;2023-02-28T10:27:30;102729.56;;;13.87;46.62
53246;BME280;39569;51.090;-1.786;2023-02-28T10:29:58;102714.13;;;13.99;46.19
53246;BME280;39569;51.090;-1.786;2023-02-28T10:32:27;102725.78;;;13.80;46.66
53246;BME280;39569;51.090;-1.786;2023-02-28T10:34:59;102710.84;;;14.05;45.68
53246;BME280;39569;51.090;-1.786;2023-02-28T10:37:26;102713.16;;;14.89;43.74
53246;BME280;39569;51.090;-1.786;2023-02-28T10:39:53;102717.13;;;14.23;45.21
53246;BME280;39569;51.090;-1.786;2023-02-28T10:42:25;102716.16;;;14.51;45.09
53246;BME280;39569;51.090;-1.786;2023-02-28T10:45:09;102704.59;;;14.41;45.83
53246;BME280;39569;51.090;-1.786;2023-02-28T10:47:49;102704.78;;;14.03;45.67
53246;BME280;39569;51.090;-1.786;2023-02-28T10:50:32;102700.72;;;14.88;44.22
53246;BME280;39569;51.090;-1.786;2023-02-28T10:53:21;102700.09;;;14.94;43.77
53246;BME280;39569;51.090;-1.786;2023-02-28T10:55:56;102706.19;;;14.07;45.75
53246;BME280;39569;51.090;-1.786;2023-02-28T10:58:25;102707.16;;;13.69;45.79
53246;BME280;39569;51.090;-1.786;2023-02-28T11:00:52;102702.78;;;14.05;45.86
53246;BME280;39569;51.090;-1.786;2023-02-28T11:03:25;102704.75;;;14.39;45.63
53246;BME280;39569;51.090;-1.786;2023-02-28T11:05:57;102703.81;;;13.94;46.81
53246;BME280;39569;51.090;-1.786;2023-02-28T11:08:24;102702.28;;;13.45;47.60
53246;BME280;39569;51.090;-1.786;2023-02-28T11:10:55;102695.28;;;13.71;46.79
53246;BME280;39569;51.090;-1.786;2023-02-28T11:13:26;102697.34;;;13.31;47.34
53246;BME280;39569;51.090;-1.786;2023-02-28T11:15:56;102687.00;;;13.46;47.96
53246;BME280;39569;51.090;-1.786;2023-02-28T11:18:27;102683.50;;;13.82;45.84
53246;BME280;39569;51.090;-1.786;2023-02-28T11:20:59;102691.50;;;14.01;46.50
53246;BME280;39569;51.090;-1.786;2023-02-28T11:23:29;102688.88;;;13.82;46.11
53246;BME280;39569;51.090;-1.786;2023-02-28T11:26:00;102692.03;;;14.05;46.05
53246;BME280;39569;51.090;-1.786;2023-02-28T11:28:30;102686.78;;;13.76;46.38
53246;BME280;39569;51.090;-1.786;2023-02-28T11:31:04;102684.75;;;14.15;45.65
53246;BME280;39569;51.090;-1.786;2023-02-28T11:33:37;102684.53;;;14.35;45.56
53246;BME280;39569;51.090;-1.786;2023-02-28T11:36:12;102679.25;;;13.52;46.54
53246;BME280;39569;51.090;-1.786;2023-02-28T11:38:39;102688.34;;;13.78;46.07
53246;BME280;39569;51.090;-1.786;2023-02-28T11:41:17;102686.88;;;13.94;45.73
53246;BME280;39569;51.090;-1.786;2023-02-28T11:44:03;102681.16;;;14.24;44.90
53246;BME280;39569;51.090;-1.786;2023-02-28T11:46:39;102676.34;;;14.00;45.42
53246;BME280;39569;51.090;-1.786;2023-02-28T11:49:18;102681.16;;;14.33;45.53
53246;BME280;39569;51.090;-1.786;2023-02-28T11:51:53;102669.00;;;14.02;46.03
53246;BME280;39569;51.090;-1.786;2023-02-28T11:54:35;102668.31;;;14.00;46.33
53246;BME280;39569;51.090;-1.786;2023-02-28T11:57:24;102665.28;;;14.57;45.72
53246;BME280;39569;51.090;-1.786;2023-02-28T11:59:58;102659.69;;;13.97;47.35
53246;BME280;39569;51.090;-1.786;2023-02-28T12:02:30;102651.00;;;13.75;46.79
53246;BME280;39569;51.090;-1.786;2023-02-28T12:05:13;102644.16;;;14.18;46.89
53246;BME280;39569;51.090;-1.786;2023-02-28T12:07:54;102637.00;;;14.36;46.20
53246;BME280;39569;51.090;-1.786;2023-02-28T12:10:25;102637.63;;;14.47;45.54
53246;BME280;39569;51.090;-1.786;2023-02-28T12:13:04;102646.63;;;13.84;47.07
53246;BME280;39569;51.090;-1.786;2023-02-28T12:15:54;102636.75;;;14.02;46.54
53246;BME280;39569;51.090;-1.786;2023-02-28T12:18:36;102639.22;;;14.13;46.71
53246;BME280;39569;51.090;-1.786;2023-02-28T12:21:12;102630.94;;;14.51;45.59
53246;BME280;39569;51.090;-1.786;2023-02-28T12:23:55;102619.00;;;14.89;44.80
53246;BME280;39569;51.090;-1.786;2023-02-28T12:26:34;102622.72;;;14.70;45.40
53246;BME280;39569;51.090;-1.786;2023-02-28T12:29:10;102606.75;;;15.12;44.91
53246;BME280;39569;51.090;-1.786;2023-02-28T12:31:42;102597.78;;;16.13;43.00
53246;BME280;39569;51.090;-1.786;2023-02-28T12:34:16;102599.00;;;16.18;42.13
53246;BME280;39569;51.090;-1.786;2023-02-28T12:36:46;102610.75;;;15.34;43.07
53246;BME280;39569;51.090;-1.786;2023-02-28T12:39:19;102613.44;;;15.08;43.72
53246;BME280;39569;51.090;-1.786;2023-02-28T12:41:51;102601.88;;;14.72;44.38
53246;BME280;39569;51.090;-1.786;2023-02-28T12:44:23;102600.94;;;14.82;45.10
53246;BME280;39569;51.090;-1.786;2023-02-28T12:46:56;102600.69;;;14.93;44.73
53246;BME280;39569;51.090;-1.786;2023-02-28T12:49:27;102607.41;;;14.53;46.11
53246;BME280;39569;51.090;-1.786;2023-02-28T12:51:57;102595.44;;;14.48;45.85
53246;BME280;39569;51.090;-1.786;2023-02-28T12:54:32;102601.03;;;14.37;46.59
53246;BME280;39569;51.090;-1.786;2023-02-28T12:57:07;102606.81;;;14.59;46.57
53246;BME280;39569;51.090;-1.786;2023-02-28T12:59:37;102599.59;;;14.42;46.56
53246;BME280;39569;51.090;-1.786;2023-02-28T13:02:33;102586.31;;;14.58;46.01
53246;BME280;39569;51.090;-1.786;2023-02-28T13:05:26;102588.88;;;14.86;45.06